Floyd Bennett Memorial Airport Glens Falls US
ICAO: KGFL
IATA: GFL
Category: Medium
Scheduled Services: No

Elevation: 328 ft
TransAlt. 18000 ft.

Airport Communications:
ALBANY APP/DEP:125
ASOS:119.25
BURLINGTON RDO:122.2
CTAF/UNICOM:123

KGFL Zoom In..

If Map Doesn't Load, Click Here

Runways:

(A) RW 01 length 5000 ft width 150 ft
ILS 110.70 / hdg 12

(B) RW 12 length 3999 ft width 100 ft
---- / hdg 124

(C) RW 19 length 5000 ft width 150 ft
---- / hdg 192

(D) RW 30 length 3999 ft width 100 ft
---- / hdg 304

Location; KGFL
Day. 21 / Time. 12.53 Zulu
* Altimeter: 30.14
* Temperature: 17° c. 62.6°f.
* Wind from: 180° Speed 09 kn with Gusts up to 15 kn.
Dewpoint: 16° c.
Visibility: 10 Statute Miles.
Clouds: Overcast 1800 ft.

KGFL 211253Z AUTO 18009G15KT 10SM OVC018 17/16 A3014 RMK AO2 SLP208 T01670161


Wind From 180°
Speed 09 kn.

 
 
jpsmedia.com for Web Design worldairports.se 2018   terms of use